createdAt,value
2018-12-22T00:00:20.310Z,-3.40
2018-12-22T00:02:47.830Z,-3.32
2018-12-22T00:05:15.361Z,-3.25
2018-12-22T00:07:43.168Z,-3.32
2018-12-22T00:10:10.684Z,-3.42
2018-12-22T00:12:38.470Z,-3.47
2018-12-22T00:15:06.183Z,-3.44
2018-12-22T00:17:33.705Z,-3.42
2018-12-22T00:20:01.249Z,-3.46
2018-12-22T00:22:29.124Z,-3.39
2018-12-22T00:24:56.654Z,-3.26
2018-12-22T00:27:24.534Z,-3.32
2018-12-22T00:29:52.051Z,-3.40
2018-12-22T00:32:19.565Z,-3.41
2018-12-22T00:34:49.484Z,-3.53
2018-12-22T00:37:17.025Z,-3.49
2018-12-22T00:39:44.912Z,-3.48
2018-12-22T00:42:12.436Z,-3.58
2018-12-22T00:44:39.996Z,-3.53
2018-12-22T00:47:07.511Z,-3.47
2018-12-22T00:49:35.461Z,-3.37
2018-12-22T00:52:02.988Z,-3.35
2018-12-22T00:54:30.503Z,-3.37
2018-12-22T00:56:58.053Z,-3.42
2018-12-22T00:59:25.569Z,-3.48
2018-12-22T01:01:53.434Z,-3.53
2018-12-22T01:04:20.953Z,-3.51
2018-12-22T01:06:48.794Z,-3.54
2018-12-22T01:09:16.449Z,-3.52
2018-12-22T01:11:44.212Z,-3.47
2018-12-22T01:14:11.719Z,-3.45
2018-12-22T01:16:39.538Z,-3.45
2018-12-22T01:19:07.062Z,-3.49
2018-12-22T01:21:34.834Z,-3.54
2018-12-22T01:24:02.359Z,-3.64
2018-12-22T01:26:29.880Z,-3.62
2018-12-22T01:28:57.424Z,-3.56
2018-12-22T01:31:24.931Z,-3.62
2018-12-22T01:33:52.519Z,-3.68
2018-12-22T01:36:20.034Z,-3.79
2018-12-22T01:38:47.640Z,-3.84
2018-12-22T01:41:15.153Z,-3.76
2018-12-22T01:43:42.874Z,-3.69
2018-12-22T01:46:10.394Z,-3.66
2018-12-22T01:48:37.907Z,-3.57
2018-12-22T01:51:05.968Z,-3.68
2018-12-22T01:53:33.571Z,-3.78
2018-12-22T01:56:01.171Z,-3.83
2018-12-22T01:58:29.066Z,-3.74
2018-12-22T02:00:56.583Z,-3.57
2018-12-22T02:03:24.101Z,-3.50
2018-12-22T02:05:51.814Z,-3.53
2018-12-22T02:08:19.336Z,-3.63
2018-12-22T02:10:46.868Z,-3.74
2018-12-22T02:13:14.714Z,-3.80
2018-12-22T02:15:42.223Z,-3.91
2018-12-22T02:18:09.752Z,-3.86
2018-12-22T02:20:37.294Z,-3.86
2018-12-22T02:23:04.805Z,-3.73
2018-12-22T02:25:32.316Z,-3.75
2018-12-22T02:30:32.540Z,-3.95
2018-12-22T02:33:00.242Z,-4.01
2018-12-22T02:35:27.767Z,-3.81
2018-12-22T02:40:34.059Z,-3.63
2018-12-22T02:43:01.600Z,-3.59
2018-12-22T02:45:29.116Z,-3.61
2018-12-22T02:47:56.667Z,-3.58
2018-12-22T02:50:24.495Z,-3.70
2018-12-22T02:52:52.012Z,-3.80
2018-12-22T02:55:19.748Z,-3.63
2018-12-22T02:57:47.279Z,-3.69
2018-12-22T03:00:14.960Z,-3.89
2018-12-22T03:02:42.583Z,-3.72
2018-12-22T03:05:10.449Z,-3.69
2018-12-22T03:07:38.088Z,-3.69
2018-12-22T03:10:05.851Z,-3.61
2018-12-22T03:12:33.540Z,-3.42
2018-12-22T03:15:01.067Z,-3.46
2018-12-22T03:17:28.964Z,-3.44
2018-12-22T03:19:56.477Z,-3.52
2018-12-22T03:22:24.280Z,-3.65
2018-12-22T03:24:51.795Z,-3.81
2018-12-22T03:27:19.378Z,-3.62
2018-12-22T03:29:47.268Z,-3.57
2018-12-22T03:32:14.917Z,-3.66
2018-12-22T03:34:42.445Z,-3.55
2018-12-22T03:37:10.262Z,-3.54
2018-12-22T03:39:37.766Z,-3.47
2018-12-22T03:42:05.393Z,-3.54
2018-12-22T03:44:33.088Z,-3.59
2018-12-22T03:47:00.607Z,-3.67
2018-12-22T03:49:28.127Z,-3.81
2018-12-22T03:51:55.786Z,-4.10
2018-12-22T03:54:23.304Z,-4.00
2018-12-22T03:56:50.829Z,-3.96
2018-12-22T03:59:24.694Z,-3.92
2018-12-22T04:01:48.161Z,-3.84
2018-12-22T04:04:15.738Z,-3.84
2018-12-22T04:06:43.280Z,-3.85
2018-12-22T04:09:10.795Z,-3.89
2018-12-22T04:11:38.326Z,-3.96
2018-12-22T04:14:06.222Z,-3.85
2018-12-22T04:16:33.753Z,-3.77
2018-12-22T04:19:01.278Z,-3.74
2018-12-22T04:21:29.069Z,-3.74
2018-12-22T04:23:56.590Z,-3.84
2018-12-22T04:26:24.122Z,-3.80
2018-12-22T04:28:51.960Z,-3.68
2018-12-22T04:31:19.490Z,-3.70
2018-12-22T04:33:47.338Z,-3.64
2018-12-22T04:36:14.959Z,-3.57
2018-12-22T04:38:42.491Z,-3.55
2018-12-22T04:41:10.260Z,-3.61
2018-12-22T04:43:37.898Z,-3.61
2018-12-22T04:46:05.443Z,-3.49
2018-12-22T04:48:33.015Z,-3.50
2018-12-22T04:51:00.529Z,-3.55
2018-12-22T04:53:28.063Z,-3.68
2018-12-22T04:55:55.906Z,-3.70
2018-12-22T04:58:23.416Z,-3.71
2018-12-22T05:00:50.930Z,-3.75
2018-12-22T05:03:18.947Z,-3.89
2018-12-22T05:05:46.454Z,-3.87
2018-12-22T05:08:13.999Z,-4.03
2018-12-22T05:10:41.876Z,-3.95
2018-12-22T05:13:09.399Z,-3.95
2018-12-22T05:15:36.987Z,-4.03
2018-12-22T05:18:04.754Z,-4.07
2018-12-22T05:20:32.268Z,-4.06
2018-12-22T05:22:59.780Z,-4.01
2018-12-22T05:25:27.584Z,-3.87
2018-12-22T05:27:55.104Z,-3.76
2018-12-22T05:30:22.643Z,-3.72
2018-12-22T05:32:57.194Z,-3.77
2018-12-22T05:35:24.821Z,-3.66
2018-12-22T05:37:52.365Z,-3.64
2018-12-22T05:40:20.237Z,-3.71
2018-12-22T05:42:47.740Z,-3.61
2018-12-22T05:45:15.611Z,-3.72
2018-12-22T05:47:43.130Z,-3.68
2018-12-22T05:50:10.692Z,-3.49
2018-12-22T05:52:38.211Z,-3.49
2018-12-22T05:55:05.721Z,-3.58
2018-12-22T05:57:33.587Z,-3.58
2018-12-22T06:00:01.108Z,-3.39
2018-12-22T06:02:28.646Z,-3.43
2018-12-22T06:04:56.686Z,-3.50
2018-12-22T06:07:24.210Z,-3.59
2018-12-22T06:09:51.724Z,-3.44
2018-12-22T06:12:19.457Z,-3.53
2018-12-22T06:14:46.996Z,-3.52
2018-12-22T06:17:14.504Z,-3.48
2018-12-22T06:19:42.222Z,-3.56
2018-12-22T06:22:09.737Z,-3.58
2018-12-22T06:24:37.264Z,-3.53
2018-12-22T06:27:04.899Z,-3.63
2018-12-22T06:29:32.481Z,-3.62
2018-12-22T06:32:00.053Z,-3.65
2018-12-22T06:34:27.611Z,-3.54
2018-12-22T06:36:55.236Z,-3.32
2018-12-22T06:39:23.174Z,-3.66
2018-12-22T06:41:51.067Z,-4.04
2018-12-22T06:44:18.571Z,-4.08
2018-12-22T06:46:46.185Z,-4.10
2018-12-22T06:49:13.815Z,-3.96
2018-12-22T06:51:41.348Z,-4.08
2018-12-22T06:54:08.904Z,-4.14
2018-12-22T06:56:36.747Z,-3.87
2018-12-22T06:59:04.294Z,-3.61
2018-12-22T07:01:32.186Z,-3.68
2018-12-22T07:03:59.709Z,-3.75
2018-12-22T07:06:27.326Z,-3.48
2018-12-22T07:08:54.880Z,-3.27
2018-12-22T07:11:22.430Z,-3.17
2018-12-22T07:13:49.943Z,-2.93
2018-12-22T07:16:17.454Z,-2.61
2018-12-22T07:18:44.975Z,-2.34
2018-12-22T07:21:12.482Z,-2.18
2018-12-22T07:23:40.410Z,-1.87
2018-12-22T07:26:08.056Z,-1.60
2018-12-22T07:28:35.891Z,-1.62
2018-12-22T07:31:03.456Z,-1.57
2018-12-22T07:33:31.138Z,-1.47
2018-12-22T07:35:58.654Z,-1.21
2018-12-22T07:38:26.454Z,-0.92
2018-12-22T07:40:53.971Z,-0.83
2018-12-22T07:43:21.576Z,-0.80
2018-12-22T07:45:49.347Z,-0.80
2018-12-22T07:48:16.878Z,-0.79
2018-12-22T07:50:44.427Z,-0.97
2018-12-22T07:53:12.009Z,-1.07
2018-12-22T07:55:39.707Z,-0.98
2018-12-22T07:58:07.221Z,-1.16
2018-12-22T08:00:35.264Z,-1.35
2018-12-22T08:03:03.323Z,-0.96
2018-12-22T08:05:38.421Z,-0.86
2018-12-22T08:08:00.586Z,-1.20
2018-12-22T08:10:28.145Z,-0.95
2018-12-22T08:12:55.679Z,-0.74
2018-12-22T08:15:23.194Z,-0.52
2018-12-22T08:17:50.990Z,-0.22
2018-12-22T08:20:18.515Z,-0.31
2018-12-22T08:22:46.098Z,-0.17
2018-12-22T08:25:14.068Z,-0.23
2018-12-22T08:27:41.592Z,-0.13
2018-12-22T08:30:09.428Z,-0.11
2018-12-22T08:32:37.281Z,-0.32
2018-12-22T08:35:04.843Z,-0.25
2018-12-22T08:37:32.363Z,-0.24
2018-12-22T08:40:00.281Z,-0.07
2018-12-22T08:42:27.931Z,0.02
2018-12-22T08:44:55.448Z,-0.21
2018-12-22T08:47:23.235Z,0.13
2018-12-22T08:49:50.757Z,0.09
2018-12-22T08:52:18.285Z,0.27
2018-12-22T08:54:46.013Z,0.39
2018-12-22T08:57:14.089Z,0.44
2018-12-22T08:59:41.617Z,0.62
2018-12-22T09:02:09.133Z,0.54
2018-12-22T09:04:36.863Z,0.70
2018-12-22T09:07:04.663Z,0.80
2018-12-22T09:09:32.163Z,0.81
2018-12-22T09:11:59.959Z,0.90
2018-12-22T09:14:27.496Z,1.04
2018-12-22T09:16:55.098Z,1.15
2018-12-22T09:19:22.613Z,1.13
2018-12-22T09:21:50.124Z,1.12
2018-12-22T09:24:17.965Z,1.22
2018-12-22T09:26:45.490Z,1.29
2018-12-22T09:29:13.054Z,1.42
2018-12-22T09:31:40.564Z,1.33
2018-12-22T09:34:13.217Z,1.59
2018-12-22T09:36:37.910Z,1.71
2018-12-22T09:39:07.228Z,1.80
2018-12-22T09:41:34.741Z,1.62
2018-12-22T09:44:02.528Z,1.23
2018-12-22T09:46:30.137Z,1.49
2018-12-22T09:48:57.942Z,1.47
2018-12-22T09:51:25.487Z,1.47
2018-12-22T09:53:53.050Z,1.35
2018-12-22T09:56:20.833Z,1.55
2018-12-22T09:58:48.338Z,1.66
2018-12-22T10:01:16.029Z,1.81
2018-12-22T10:03:43.532Z,1.94
2018-12-22T10:06:11.070Z,1.97
2018-12-22T10:08:38.727Z,2.27
2018-12-22T10:11:06.258Z,2.42
2018-12-22T10:13:33.791Z,2.41
2018-12-22T10:16:01.326Z,2.70
2018-12-22T10:18:29.059Z,2.93
2018-12-22T10:20:56.599Z,3.10
2018-12-22T10:23:24.116Z,2.84
2018-12-22T10:25:51.650Z,2.86
2018-12-22T10:28:19.279Z,2.73
2018-12-22T10:30:47.094Z,2.67
2018-12-22T10:33:15.146Z,2.58
2018-12-22T10:35:42.672Z,2.34
2018-12-22T10:38:10.207Z,2.43
2018-12-22T10:40:37.733Z,2.15
2018-12-22T10:43:05.240Z,2.29
2018-12-22T10:45:33.049Z,2.33
2018-12-22T10:48:00.673Z,2.61
2018-12-22T10:50:28.205Z,2.71
2018-12-22T10:52:55.787Z,2.90
2018-12-22T10:55:23.332Z,2.98
2018-12-22T10:57:50.884Z,3.02
2018-12-22T11:00:18.419Z,2.94
2018-12-22T11:02:46.133Z,2.89
2018-12-22T11:05:13.773Z,2.83
2018-12-22T11:07:41.348Z,3.19
2018-12-22T11:10:12.413Z,3.37
2018-12-22T11:12:40.238Z,3.30
2018-12-22T11:15:08.287Z,3.16
2018-12-22T11:17:36.111Z,3.35
2018-12-22T11:20:06.146Z,3.44
2018-12-22T11:22:34.081Z,3.50
2018-12-22T11:25:02.581Z,3.57
2018-12-22T11:27:30.127Z,3.54
2018-12-22T11:29:57.642Z,3.32
2018-12-22T11:32:25.173Z,3.06
2018-12-22T11:34:52.792Z,2.88
2018-12-22T11:37:20.351Z,2.75
2018-12-22T11:39:47.921Z,2.61
2018-12-22T11:42:15.465Z,2.85
2018-12-22T11:44:43.024Z,3.06
2018-12-22T11:47:12.964Z,3.03
2018-12-22T11:49:40.814Z,3.12
2018-12-22T11:52:08.326Z,3.25
2018-12-22T11:54:36.167Z,3.26
2018-12-22T11:57:03.797Z,3.08
2018-12-22T11:59:31.318Z,3.01
2018-12-22T12:02:14.100Z,3.00
2018-12-22T12:04:42.123Z,2.94
2018-12-22T12:07:09.895Z,3.01
2018-12-22T12:09:37.815Z,3.03
2018-12-22T12:12:05.400Z,3.01
2018-12-22T12:14:32.929Z,3.17
2018-12-22T12:17:02.517Z,3.31
2018-12-22T12:19:30.032Z,3.28
2018-12-22T12:21:57.582Z,3.38
2018-12-22T12:24:25.368Z,3.70
2018-12-22T12:26:52.889Z,3.78
2018-12-22T12:29:20.421Z,3.88
2018-12-22T12:31:52.045Z,3.65
2018-12-22T12:34:17.705Z,3.46
2018-12-22T12:36:45.225Z,3.58
2018-12-22T12:39:12.994Z,3.64
2018-12-22T12:41:40.524Z,3.72
2018-12-22T12:44:08.093Z,3.60
2018-12-22T12:46:35.877Z,3.66
2018-12-22T12:49:03.492Z,3.65
2018-12-22T12:51:31.012Z,3.53
2018-12-22T12:53:58.552Z,3.82
2018-12-22T12:56:26.565Z,3.98
2018-12-22T12:58:54.066Z,4.18
2018-12-22T13:01:22.029Z,4.28
2018-12-22T13:03:49.558Z,4.46
2018-12-22T13:06:17.097Z,4.50
2018-12-22T13:08:44.705Z,4.57
2018-12-22T13:11:12.484Z,4.48
2018-12-22T13:13:43.294Z,4.40
2018-12-22T13:16:10.965Z,4.38
2018-12-22T13:18:38.758Z,4.33
2018-12-22T13:21:08.917Z,4.49
2018-12-22T13:23:36.745Z,4.63
2018-12-22T13:26:04.284Z,4.61
2018-12-22T13:28:31.792Z,4.59
2018-12-22T13:30:59.903Z,4.53
2018-12-22T13:33:28.120Z,4.35
2018-12-22T13:35:55.942Z,4.23
2018-12-22T13:38:24.141Z,4.03
2018-12-22T13:40:51.676Z,4.03
2018-12-22T13:45:57.770Z,3.78
2018-12-22T13:48:25.595Z,3.64
2018-12-22T13:50:53.551Z,3.61
2018-12-22T13:53:21.477Z,3.34
2018-12-22T13:55:49.135Z,3.38
2018-12-22T13:58:16.652Z,3.23
2018-12-22T14:00:44.332Z,3.13
2018-12-22T14:03:11.870Z,2.87
2018-12-22T14:05:39.406Z,2.61
2018-12-22T14:08:07.188Z,2.49
2018-12-22T14:10:34.772Z,2.46
2018-12-22T14:13:02.329Z,2.33
2018-12-22T14:15:30.107Z,2.31
2018-12-22T14:18:18.395Z,2.28
2018-12-22T14:20:46.152Z,2.24
2018-12-22T14:23:13.659Z,2.27
2018-12-22T14:25:41.181Z,2.25
2018-12-22T14:28:09.085Z,2.23
2018-12-22T14:30:36.606Z,2.27
2018-12-22T14:33:04.115Z,2.27
2018-12-22T14:35:34.960Z,2.19
2018-12-22T14:38:02.558Z,2.01
2018-12-22T14:40:30.382Z,1.76
2018-12-22T14:42:57.919Z,1.73
2018-12-22T14:45:25.695Z,1.57
2018-12-22T14:47:54.125Z,1.75
2018-12-22T14:50:21.655Z,1.75
2018-12-22T14:52:49.185Z,1.60
2018-12-22T14:55:17.050Z,1.64
2018-12-22T14:57:49.120Z,1.47
2018-12-22T15:00:17.005Z,1.29
2018-12-22T15:02:44.534Z,1.20
2018-12-22T15:05:12.075Z,1.14
2018-12-22T15:07:39.894Z,0.99
2018-12-22T15:10:09.867Z,0.82
2018-12-22T15:12:37.574Z,0.68
2018-12-22T15:15:12.152Z,0.64
2018-12-22T15:17:43.107Z,0.51
2018-12-22T15:20:14.984Z,0.45
2018-12-22T15:22:42.949Z,0.54
2018-12-22T15:25:10.586Z,0.58
2018-12-22T15:27:38.124Z,0.63
2018-12-22T15:30:10.183Z,0.52
2018-12-22T15:32:44.205Z,0.52
2018-12-22T15:35:09.179Z,0.35
2018-12-22T15:37:37.005Z,0.42
2018-12-22T15:40:07.959Z,0.45
2018-12-22T15:42:35.466Z,0.50
2018-12-22T15:45:05.318Z,0.48
2018-12-22T15:47:33.130Z,0.39
2018-12-22T15:50:00.817Z,0.37
2018-12-22T15:52:28.333Z,0.59
2018-12-22T15:54:56.859Z,0.56
2018-12-22T15:57:24.383Z,0.66
2018-12-22T15:59:52.204Z,0.68
2018-12-22T16:02:19.735Z,0.61
2018-12-22T16:04:47.257Z,0.61
2018-12-22T16:07:15.097Z,0.44
2018-12-22T16:09:42.618Z,0.32
2018-12-22T16:12:10.133Z,0.34
2018-12-22T16:14:37.917Z,0.20
2018-12-22T16:17:05.447Z,0.29
2018-12-22T16:19:33.059Z,0.38
2018-12-22T16:22:00.988Z,0.45
2018-12-22T16:24:28.499Z,0.49
2018-12-22T16:26:56.049Z,0.47
2018-12-22T16:29:24.527Z,0.38
2018-12-22T16:31:52.051Z,0.55
2018-12-22T16:34:19.562Z,0.51
2018-12-22T16:36:47.356Z,0.47
2018-12-22T16:39:14.868Z,0.47
2018-12-22T16:41:42.460Z,0.53
2018-12-22T16:46:44.193Z,0.69
2018-12-22T16:49:12.144Z,0.61
2018-12-22T16:51:39.667Z,0.44
2018-12-22T16:54:07.382Z,0.37
2018-12-22T16:56:35.057Z,0.36
2018-12-22T16:59:02.605Z,0.42
2018-12-22T17:01:34.260Z,0.40
2018-12-22T17:04:02.134Z,0.28
2018-12-22T17:06:30.199Z,0.48
2018-12-22T17:08:57.752Z,0.28
2018-12-22T17:11:25.546Z,0.36
2018-12-22T17:13:53.069Z,0.41
2018-12-22T17:18:59.355Z,0.33
2018-12-22T17:21:26.902Z,0.21
2018-12-22T17:23:57.990Z,0.22
2018-12-22T17:26:28.175Z,0.18
2018-12-22T17:28:56.129Z,0.09
2018-12-22T17:31:23.656Z,-0.02
2018-12-22T17:33:51.195Z,-0.16
2018-12-22T17:36:18.758Z,-0.18
2018-12-22T17:38:46.275Z,-0.22
2018-12-22T17:41:13.791Z,-0.18
2018-12-22T17:43:41.538Z,-0.16
2018-12-22T17:46:09.051Z,-0.10
2018-12-22T17:48:36.579Z,-0.15
2018-12-22T17:51:04.379Z,-0.28
2018-12-22T17:53:31.893Z,-0.36
2018-12-22T17:55:59.438Z,-0.49
2018-12-22T17:58:27.223Z,-0.48
2018-12-22T18:00:54.737Z,-0.42
2018-12-22T18:03:27.334Z,-0.53
2018-12-22T18:05:51.815Z,-0.49
2018-12-22T18:08:19.322Z,-0.57
2018-12-22T18:10:46.853Z,-0.46
2018-12-22T18:13:14.703Z,-0.38
2018-12-22T18:15:42.322Z,-0.44
2018-12-22T18:18:09.836Z,-0.26
2018-12-22T18:20:37.400Z,-0.34
2018-12-22T18:23:04.915Z,-0.39
2018-12-22T18:25:32.433Z,-0.39
2018-12-22T18:28:00.223Z,-0.30
2018-12-22T18:30:27.883Z,-0.31
2018-12-22T18:32:55.421Z,-0.30
2018-12-22T18:35:23.338Z,-0.26
2018-12-22T18:37:50.848Z,-0.52
2018-12-22T18:40:21.202Z,-0.34
2018-12-22T18:42:49.014Z,-0.31
2018-12-22T18:45:16.742Z,-0.49
2018-12-22T18:47:44.597Z,-0.57
2018-12-22T18:50:21.128Z,-0.62
2018-12-22T18:52:48.775Z,-0.67
2018-12-22T18:55:16.294Z,-0.50
2018-12-22T18:57:46.129Z,-0.55
2018-12-22T19:00:19.150Z,-0.51
2018-12-22T19:02:46.668Z,-0.42
2018-12-22T19:05:15.268Z,-0.54
2018-12-22T19:07:42.789Z,-0.71
2018-12-22T19:10:20.714Z,-0.68
2018-12-22T19:12:48.343Z,-0.55
2018-12-22T19:15:15.887Z,-0.58
2018-12-22T19:17:43.441Z,-0.65
2018-12-22T19:20:18.486Z,-0.62
2018-12-22T19:22:46.201Z,-0.62
2018-12-22T19:25:13.736Z,-0.78
2018-12-22T19:27:41.326Z,-0.82
2018-12-22T19:30:09.552Z,-0.67
2018-12-22T19:32:37.195Z,-0.64
2018-12-22T19:35:05.831Z,-0.58
2018-12-22T19:37:33.750Z,-0.47
2018-12-22T19:40:01.309Z,-0.42
2018-12-22T19:42:28.828Z,-0.24
2018-12-22T19:44:56.369Z,-0.18
2018-12-22T19:47:23.901Z,-0.10
2018-12-22T19:49:51.439Z,-0.08
2018-12-22T19:52:19.219Z,0.05
2018-12-22T19:54:46.742Z,0.04
2018-12-22T19:57:14.554Z,0.20
2018-12-22T19:59:42.185Z,0.18
2018-12-22T20:02:10.072Z,0.18
2018-12-22T20:04:37.602Z,0.16
2018-12-22T20:07:05.315Z,0.27
2018-12-22T20:09:32.835Z,0.37
2018-12-22T20:12:00.362Z,0.48
2018-12-22T20:14:28.181Z,0.62
2018-12-22T20:16:55.688Z,0.62
2018-12-22T20:19:23.205Z,0.63
2018-12-22T20:21:50.724Z,0.71
2018-12-22T20:24:18.271Z,0.61
2018-12-22T20:26:45.797Z,0.56
2018-12-22T20:29:13.316Z,0.54
2018-12-22T20:31:40.859Z,0.53
2018-12-22T20:34:11.155Z,0.56
2018-12-22T20:36:38.238Z,0.56
2018-12-22T20:39:06.813Z,0.66
2018-12-22T20:41:34.359Z,0.77
2018-12-22T20:44:01.871Z,0.80
2018-12-22T20:46:29.703Z,0.93
2018-12-22T20:48:57.214Z,0.92
2018-12-22T20:51:25.038Z,1.05
2018-12-22T20:53:52.574Z,1.14
2018-12-22T20:56:20.133Z,1.16
2018-12-22T20:58:47.740Z,1.00
2018-12-22T21:01:19.767Z,0.94
2018-12-22T21:03:47.507Z,0.87
2018-12-22T21:06:16.646Z,0.92
2018-12-22T21:08:44.191Z,0.89
2018-12-22T21:11:11.812Z,1.09
2018-12-22T21:13:39.734Z,0.89
2018-12-22T21:16:07.269Z,1.06
2018-12-22T21:18:34.926Z,1.10
2018-12-22T21:21:02.452Z,1.06
2018-12-22T21:23:30.286Z,0.90
2018-12-22T21:25:57.829Z,0.97
2018-12-22T21:28:25.886Z,1.06
2018-12-22T21:30:53.435Z,1.16
2018-12-22T21:33:20.952Z,1.02
2018-12-22T21:35:53.147Z,1.02
2018-12-22T21:38:18.337Z,1.20
2018-12-22T21:40:45.852Z,1.31
2018-12-22T21:43:13.379Z,1.16
2018-12-22T21:45:40.915Z,1.33
2018-12-22T21:48:08.439Z,1.44
2018-12-22T21:50:35.997Z,1.43
2018-12-22T21:53:03.503Z,1.48
2018-12-22T21:55:31.307Z,1.51
2018-12-22T21:57:58.839Z,1.59
2018-12-22T22:00:26.360Z,1.65
2018-12-22T22:02:54.157Z,1.66
2018-12-22T22:05:21.678Z,1.60
2018-12-22T22:07:49.509Z,1.57
2018-12-22T22:10:17.027Z,1.65
2018-12-22T22:12:44.539Z,1.59
2018-12-22T22:15:12.386Z,1.58
2018-12-22T22:17:39.910Z,1.59
2018-12-22T22:20:07.418Z,1.43
2018-12-22T22:22:35.182Z,1.40
2018-12-22T22:25:02.699Z,1.54
2018-12-22T22:27:30.216Z,1.52
2018-12-22T22:29:57.788Z,1.59
2018-12-22T22:32:25.322Z,1.64
2018-12-22T22:34:52.840Z,1.68
2018-12-22T22:37:20.513Z,1.74
2018-12-22T22:39:48.046Z,1.79
2018-12-22T22:42:15.580Z,1.82
2018-12-22T22:44:43.128Z,1.87
2018-12-22T22:47:10.663Z,1.92
2018-12-22T22:49:38.175Z,1.87
2018-12-22T22:52:05.978Z,1.94
2018-12-22T22:54:33.519Z,2.06
2018-12-22T22:57:01.171Z,1.98
2018-12-22T22:59:29.046Z,1.84
2018-12-22T23:01:56.557Z,1.69
2018-12-22T23:04:24.998Z,1.64
2018-12-22T23:06:52.547Z,1.76
2018-12-22T23:09:20.051Z,1.84
2018-12-22T23:11:54.081Z,1.78
2018-12-22T23:14:21.679Z,1.73
2018-12-22T23:16:49.328Z,1.70
2018-12-22T23:19:17.197Z,1.69
2018-12-22T23:21:44.720Z,1.59
2018-12-22T23:24:12.713Z,1.58
2018-12-22T23:26:40.241Z,1.63
2018-12-22T23:29:07.761Z,1.59
2018-12-22T23:31:35.312Z,1.61
2018-12-22T23:34:02.819Z,1.63
2018-12-22T23:36:30.327Z,1.81
2018-12-22T23:38:58.203Z,1.99
2018-12-22T23:41:25.725Z,1.84
2018-12-22T23:43:53.258Z,1.74
2018-12-22T23:46:21.150Z,1.65
2018-12-22T23:48:48.673Z,1.74
2018-12-22T23:51:16.179Z,1.65
2018-12-22T23:53:43.728Z,1.61
2018-12-22T23:56:11.244Z,1.84
2018-12-22T23:58:38.842Z,1.87
